Time;durP1;ratioP1;P1;durP2;ratioP2;P2;SDS_P1;SDS_P2;PMS_P1;PMS_P2;Temp;Humidity;BMP_temperature;BMP_pressure;BME280_temperature;BME280_humidity;BME280_pressure;Samples;Min_cycle;Max_cycle;Signal;HPM_P1;HPM_P2
2021/01/25 00:00:54;;;;;;;13.40;5.88;;;-0.50;71.20;;;;;;4995964;28;20034;-65
2021/01/25 00:03:20;;;;;;;11.85;5.75;;;-0.40;71.30;;;;;;4996883;28;20034;-64
2021/01/25 00:05:45;;;;;;;26.67;10.40;;;-0.40;71.30;;;;;;4995783;28;20041;-64
2021/01/25 00:08:11;;;;;;;17.27;8.30;;;-0.40;71.10;;;;;;4997486;28;20064;-63
2021/01/25 00:10:36;;;;;;;12.27;6.38;;;-0.40;71.00;;;;;;4993855;28;20042;-64
2021/01/25 00:13:02;;;;;;;10.65;6.45;;;-0.40;70.90;;;;;;4977630;28;20097;-64
2021/01/25 00:15:27;;;;;;;10.23;6.22;;;-0.40;71.20;;;;;;4988030;28;20417;-64
2021/01/25 00:17:53;;;;;;;13.85;7.10;;;-0.50;71.20;;;;;;4998656;28;20030;-64
2021/01/25 00:20:19;;;;;;;14.77;7.65;;;-0.50;72.10;;;;;;4997763;28;20030;-64
2021/01/25 00:22:44;;;;;;;15.23;7.20;;;-0.50;71.40;;;;;;4995531;28;20506;-64
2021/01/25 00:25:10;;;;;;;15.95;8.20;;;-0.50;71.50;;;;;;4998886;28;20101;-64
2021/01/25 00:27:35;;;;;;;15.38;7.82;;;-0.50;71.30;;;;;;4995197;28;20049;-64
2021/01/25 00:30:01;;;;;;;14.30;6.78;;;-0.50;71.30;;;;;;4995674;28;20045;-65
2021/01/25 00:32:27;;;;;;;12.27;6.68;;;-0.60;71.40;;;;;;4996872;28;20096;-64
2021/01/25 00:34:53;;;;;;;13.90;6.60;;;-0.60;71.50;;;;;;4997394;28;20072;-64
2021/01/25 00:37:18;;;;;;;13.60;6.72;;;-0.60;71.70;;;;;;4997025;28;20034;-64
2021/01/25 00:39:44;;;;;;;13.23;6.68;;;-0.60;71.70;;;;;;4996660;28;20061;-63
2021/01/25 00:42:09;;;;;;;14.05;6.57;;;-0.60;71.80;;;;;;4977767;28;20068;-63
2021/01/25 00:44:35;;;;;;;15.05;6.78;;;-0.60;71.80;;;;;;4996567;28;20494;-65
2021/01/25 00:47:00;;;;;;;10.60;6.35;;;-0.60;71.90;;;;;;4979140;28;20108;-64
2021/01/25 00:49:26;;;;;;;14.77;6.47;;;-0.60;72.10;;;;;;4979788;28;20046;-64
2021/01/25 00:51:52;;;;;;;11.25;6.60;;;-0.60;72.20;;;;;;4978978;28;20030;-65
2021/01/25 00:54:17;;;;;;;12.82;5.78;;;-0.50;72.40;;;;;;4996586;28;20076;-64
2021/01/25 00:56:46;;;;;;;9.75;5.68;;;-0.50;72.20;;;;;;4996136;28;20038;-65
2021/01/25 00:59:12;;;;;;;12.43;5.85;;;-0.50;72.10;;;;;;4996949;28;20023;-64
2021/01/25 01:01:37;;;;;;;9.63;6.22;;;-0.50;72.40;;;;;;4994218;28;20045;-63
2021/01/25 01:04:03;;;;;;;9.00;5.47;;;-0.40;72.50;;;;;;4980256;28;20397;-64
2021/01/25 01:06:29;;;;;;;10.48;6.93;;;-0.40;72.50;;;;;;4998245;28;20034;-64
2021/01/25 01:08:55;;;;;;;10.23;6.13;;;-0.40;72.50;;;;;;4995852;28;20131;-64
2021/01/25 01:11:20;;;;;;;12.00;6.95;;;-0.30;72.30;;;;;;4995824;28;20041;-64
2021/01/25 01:13:46;;;;;;;13.18;6.45;;;-0.30;72.30;;;;;;4994367;28;20042;-64
2021/01/25 01:16:11;;;;;;;11.85;6.50;;;-0.30;72.20;;;;;;4997419;28;20026;-64
2021/01/25 01:18:37;;;;;;;13.07;6.90;;;-0.20;72.40;;;;;;4993180;28;20034;-63
2021/01/25 01:21:03;;;;;;;10.90;6.20;;;-0.20;72.30;;;;;;4987187;28;20038;-65
2021/01/25 01:23:29;;;;;;;12.68;6.85;;;-0.20;72.20;;;;;;4980057;28;20038;-64
2021/01/25 01:25:54;;;;;;;12.02;6.43;;;0.00;72.40;;;;;;4997248;28;20124;-65
2021/01/25 01:28:20;;;;;;;13.02;6.97;;;-0.10;72.20;;;;;;4993989;28;20037;-65
2021/01/25 01:30:45;;;;;;;10.57;6.40;;;-0.10;72.10;;;;;;4993604;28;20113;-65
2021/01/25 01:33:11;;;;;;;11.82;6.28;;;-0.10;72.00;;;;;;4981025;28;20120;-62
2021/01/25 01:35:36;;;;;;;11.15;6.35;;;-0.10;72.00;;;;;;4995894;28;20065;-65
2021/01/25 01:38:02;;;;;;;14.35;6.18;;;-0.10;72.00;;;;;;4996937;28;20084;-64
2021/01/25 01:40:28;;;;;;;13.13;7.25;;;-0.10;72.00;;;;;;4995090;28;20038;-65
2021/01/25 01:42:53;;;;;;;12.98;6.70;;;0.00;72.00;;;;;;4998688;28;20092;-64
2021/01/25 01:45:19;;;;;;;12.35;6.90;;;-0.10;71.80;;;;;;5001470;28;20038;-64
2021/01/25 01:47:44;;;;;;;10.85;6.35;;;-0.10;71.70;;;;;;4999221;28;20035;-65
2021/01/25 01:50:12;;;;;;;10.73;6.10;;;-0.10;71.70;;;;;;4999621;28;20493;-64
2021/01/25 01:52:38;;;;;;;11.18;5.95;;;-0.10;71.90;;;;;;4998035;28;20501;-64
2021/01/25 01:55:05;;;;;;;12.60;6.22;;;-0.10;72.10;;;;;;4983960;28;20141;-64
2021/01/25 01:57:34;;;;;;;9.60;6.13;;;-0.10;72.10;;;;;;5000595;28;20031;-65
2021/01/25 02:00:03;;;;;;;9.05;5.88;;;-0.10;72.10;;;;;;5000449;28;20038;-65
2021/01/25 02:02:28;;;;;;;10.90;5.85;;;-0.10;72.00;;;;;;4997776;28;20044;-60
2021/01/25 02:04:54;;;;;;;9.57;6.18;;;-0.10;72.10;;;;;;4999841;28;20065;-64
2021/01/25 02:07:21;;;;;;;12.30;5.97;;;-0.10;72.20;;;;;;5001406;28;20723;-65
2021/01/25 02:09:48;;;;;;;10.55;6.38;;;-0.10;72.20;;;;;;5001115;28;20034;-65
2021/01/25 02:12:17;;;;;;;13.75;6.38;;;-0.10;72.20;;;;;;4979269;28;20042;-64
2021/01/25 02:14:44;;;;;;;11.40;6.40;;;-0.10;72.00;;;;;;4998891;28;20038;-64
2021/01/25 02:17:13;;;;;;;9.95;5.65;;;-0.10;72.00;;;;;;4999219;28;20165;-64
2021/01/25 02:19:57;;;;;;;11.90;5.63;;;-0.10;72.20;;;;;;4998083;28;20561;-65
2021/01/25 02:22:35;;;;;;;10.77;5.18;;;-0.10;72.60;;;;;;4999251;28;20631;-65
2021/01/25 02:25:38;;;;;;;11.63;5.60;;;-0.10;72.60;;;;;;4983129;28;20038;-64
2021/01/25 02:28:04;;;;;;;8.20;5.53;;;-0.10;72.80;;;;;;5000173;28;20151;-64
2021/01/25 02:30:30;;;;;;;11.05;5.47;;;-0.20;72.50;;;;;;4996025;28;20041;-64
2021/01/25 02:32:57;;;;;;;10.52;5.60;;;-0.20;72.70;;;;;;4981138;28;20038;-64
2021/01/25 02:35:24;;;;;;;11.18;5.63;;;-0.20;72.90;;;;;;4982818;28;20035;-65
2021/01/25 02:37:54;;;;;;;9.43;5.50;;;-0.20;73.10;;;;;;4999291;28;20421;-64
2021/01/25 02:40:21;;;;;;;8.48;5.22;;;-0.20;73.40;;;;;;4999344;28;20113;-65
2021/01/25 02:42:47;;;;;;;9.30;5.28;;;-0.20;73.40;;;;;;4997769;28;20027;-64
2021/01/25 02:45:15;;;;;;;8.48;5.35;;;-0.20;73.60;;;;;;4983263;28;20092;-64
2021/01/25 02:47:41;;;;;;;9.68;5.38;;;-0.20;73.70;;;;;;4998732;28;20521;-64
2021/01/25 02:50:08;;;;;;;7.22;5.00;;;-0.20;73.80;;;;;;4981166;28;20042;-64
2021/01/25 02:52:33;;;;;;;8.85;5.35;;;-0.20;74.00;;;;;;4996839;28;20052;-64
2021/01/25 02:55:01;;;;;;;8.80;5.68;;;-0.20;74.00;;;;;;4998536;28;20493;-64
2021/01/25 02:57:28;;;;;;;9.40;4.63;;;-0.10;74.20;;;;;;4998550;28;20132;-64
2021/01/25 02:59:54;;;;;;;7.00;4.60;;;-0.10;74.30;;;;;;4995948;28;20461;-64
2021/01/25 03:02:20;;;;;;;8.95;4.63;;;-0.10;74.50;;;;;;4978040;28;20041;-65
2021/01/25 03:04:46;;;;;;;7.22;4.88;;;-0.10;74.50;;;;;;4998850;28;20046;-64
2021/01/25 03:07:12;;;;;;;6.22;4.43;;;-0.10;75.50;;;;;;4997940;28;20513;-65
2021/01/25 03:09:38;;;;;;;7.32;4.25;;;-0.10;74.80;;;;;;4998033;28;20513;-64
2021/01/25 03:12:05;;;;;;;6.78;4.55;;;-0.10;75.00;;;;;;4997845;28;20088;-65
2021/01/25 03:14:32;;;;;;;7.32;4.68;;;-0.10;75.20;;;;;;4996716;28;20031;-65
2021/01/25 03:16:57;;;;;;;8.85;4.93;;;-0.10;75.30;;;;;;4970880;28;20027;-63
2021/01/25 03:19:24;;;;;;;7.40;4.68;;;0.00;75.40;;;;;;4979693;28;20510;-63
2021/01/25 03:21:52;;;;;;;8.27;4.43;;;0.00;75.50;;;;;;4996921;28;20711;-62
2021/01/25 03:24:18;;;;;;;5.38;3.80;;;0.00;75.60;;;;;;4985852;28;20038;-64
2021/01/25 03:26:44;;;;;;;6.55;4.70;;;0.00;75.60;;;;;;4999463;28;20084;-63
2021/01/25 03:29:10;;;;;;;6.47;3.78;;;0.10;75.70;;;;;;4978180;28;20030;-64
2021/01/25 03:31:36;;;;;;;5.40;3.83;;;0.10;76.70;;;;;;4999838;28;20045;-64
2021/01/25 03:34:03;;;;;;;5.68;3.75;;;0.20;75.90;;;;;;4997826;28;20057;-64
2021/01/25 03:36:29;;;;;;;5.03;4.00;;;0.20;76.70;;;;;;4999305;28;20042;-65
2021/01/25 03:38:56;;;;;;;6.80;3.78;;;0.30;75.90;;;;;;4997240;28;20038;-64
2021/01/25 03:41:21;;;;;;;4.22;3.35;;;0.30;75.80;;;;;;4998874;28;20030;-64
2021/01/25 03:43:47;;;;;;;5.88;3.22;;;0.30;75.70;;;;;;4997088;28;20056;-63
2021/01/25 03:46:13;;;;;;;4.68;3.33;;;0.40;75.80;;;;;;4987768;28;20080;-63
2021/01/25 03:48:38;;;;;;;7.60;3.60;;;0.40;75.70;;;;;;4996179;28;20118;-64
2021/01/25 03:51:04;;;;;;;3.38;3.00;;;0.50;75.70;;;;;;4995871;28;20053;-64
2021/01/25 03:53:30;;;;;;;5.35;3.22;;;0.50;75.60;;;;;;4998714;28;20046;-63
2021/01/25 03:55:55;;;;;;;3.70;2.58;;;0.50;75.60;;;;;;4997305;28;20048;-64
2021/01/25 03:58:23;;;;;;;4.20;2.95;;;0.60;75.50;;;;;;4998736;28;20468;-63
2021/01/25 04:00:49;;;;;;;3.63;2.85;;;0.60;75.50;;;;;;4983676;28;20038;-63
2021/01/25 04:03:14;;;;;;;4.22;2.60;;;0.60;75.50;;;;;;4999649;28;20034;-63
2021/01/25 04:05:40;;;;;;;3.75;3.13;;;0.60;75.50;;;;;;4996472;28;20136;-64
2021/01/25 04:08:06;;;;;;;3.85;2.80;;;0.60;75.60;;;;;;4997230;28;20034;-64
2021/01/25 04:10:31;;;;;;;3.10;2.58;;;0.60;75.60;;;;;;4995364;28;20517;-63
2021/01/25 04:12:57;;;;;;;3.53;2.47;;;0.70;75.70;;;;;;4977913;28;20046;-63
2021/01/25 04:15:22;;;;;;;2.85;2.55;;;0.60;75.70;;;;;;4998135;28;20125;-64
2021/01/25 04:17:48;;;;;;;2.90;2.50;;;0.70;75.90;;;;;;4980208;28;20045;-63
2021/01/25 04:20:14;;;;;;;3.92;3.53;;;0.70;75.80;;;;;;4980966;28;20088;-63
2021/01/25 04:22:39;;;;;;;4.75;3.40;;;0.70;75.90;;;;;;4997398;28;20064;-64
2021/01/25 04:25:07;;;;;;;3.63;3.25;;;0.70;75.90;;;;;;4998240;28;20585;-63
2021/01/25 04:27:33;;;;;;;3.28;2.67;;;0.70;75.90;;;;;;4980169;28;20912;-62
2021/01/25 04:29:59;;;;;;;4.63;3.08;;;0.80;75.90;;;;;;4976619;28;20034;-63
2021/01/25 04:32:25;;;;;;;5.22;2.95;;;0.80;75.90;;;;;;4994797;28;20034;-63
2021/01/25 04:34:54;;;;;;;4.28;2.90;;;0.80;75.80;;;;;;4998502;28;20137;-63
2021/01/25 04:37:20;;;;;;;3.15;2.63;;;0.80;75.80;;;;;;4995528;28;20189;-64
2021/01/25 04:39:46;;;;;;;4.93;2.70;;;0.90;75.80;;;;;;4978813;28;20118;-62
2021/01/25 04:42:11;;;;;;;4.20;2.70;;;0.90;75.90;;;;;;4995088;28;20042;-64
2021/01/25 04:44:39;;;;;;;4.47;3.28;;;0.90;76.70;;;;;;4983131;28;20072;-63
2021/01/25 04:47:05;;;;;;;7.65;3.90;;;0.90;76.00;;;;;;4993118;28;20034;-65
2021/01/25 04:49:32;;;;;;;6.55;4.00;;;0.90;75.90;;;;;;4995628;28;20043;-62
2021/01/25 04:51:58;;;;;;;6.43;4.10;;;0.90;76.00;;;;;;4997135;28;20053;-62
2021/01/25 04:54:25;;;;;;;6.85;3.97;;;0.90;76.00;;;;;;4996368;28;20034;-63
2021/01/25 04:56:52;;;;;;;4.95;3.08;;;0.80;76.00;;;;;;4980528;28;20026;-63
2021/01/25 04:59:18;;;;;;;4.72;3.30;;;0.80;76.00;;;;;;4993997;28;20030;-64
2021/01/25 05:01:45;;;;;;;4.00;3.38;;;0.80;77.00;;;;;;4994169;28;20041;-63
2021/01/25 05:04:10;;;;;;;5.03;3.38;;;0.90;76.20;;;;;;4996602;28;20029;-62
2021/01/25 05:06:38;;;;;;;4.97;3.13;;;0.90;76.20;;;;;;4981012;28;20125;-62
2021/01/25 05:09:04;;;;;;;4.10;2.97;;;0.90;77.00;;;;;;4979573;28;20031;-61
2021/01/25 05:11:30;;;;;;;5.57;3.95;;;0.90;76.20;;;;;;4975341;28;20520;-62
2021/01/25 05:14:06;;;;;;;6.60;4.78;;;0.90;76.20;;;;;;4992856;28;20163;-63
2021/01/25 05:16:33;;;;;;;6.65;4.63;;;0.90;76.20;;;;;;4994186;28;20038;-63
2021/01/25 05:19:03;;;;;;;8.80;6.28;;;0.90;76.70;;;;;;4997388;28;20113;-63
2021/01/25 05:21:49;;;;;;;8.52;5.75;;;0.90;75.90;;;;;;4998729;28;20053;-63
2021/01/25 05:24:15;;;;;;;6.35;5.10;;;0.90;75.90;;;;;;4995775;28;20026;-63
2021/01/25 05:26:59;;;;;;;9.20;5.57;;;0.80;75.90;;;;;;4995544;28;20038;-63
2021/01/25 05:29:27;;;;;;;7.85;5.78;;;0.80;76.10;;;;;;4990782;28;20058;-61
2021/01/25 05:31:53;;;;;;;7.45;5.40;;;0.80;76.00;;;;;;4996688;28;20041;-64
2021/01/25 05:34:20;;;;;;;7.80;5.47;;;0.90;76.00;;;;;;4997112;28;20038;-63
2021/01/25 05:36:47;;;;;;;7.57;5.15;;;0.90;76.00;;;;;;4997788;28;20041;-61
2021/01/25 05:39:17;;;;;;;7.55;4.70;;;0.90;75.90;;;;;;4997518;28;20069;-61
2021/01/25 05:41:56;;;;;;;5.28;3.70;;;0.90;76.00;;;;;;4997631;28;20121;-63
2021/01/25 05:44:23;;;;;;;5.57;3.80;;;0.90;76.40;;;;;;5000920;28;20096;-63
2021/01/25 05:46:49;;;;;;;7.15;5.28;;;0.90;76.20;;;;;;5002000;28;20041;-63
2021/01/25 05:49:25;;;;;;;4.90;4.30;;;0.90;76.20;;;;;;5000621;28;20620;-61
2021/01/25 05:51:56;;;;;;;5.65;4.28;;;0.90;76.40;;;;;;5002789;28;20514;-63
2021/01/25 05:54:25;;;;;;;4.38;3.75;;;0.90;76.20;;;;;;5000937;28;20030;-63
2021/01/25 05:56:52;;;;;;;3.65;3.22;;;0.90;76.40;;;;;;4991847;28;20505;-64
2021/01/25 05:59:18;;;;;;;4.05;3.35;;;0.90;76.10;;;;;;5001268;28;20055;-63
2021/01/25 06:01:45;;;;;;;5.75;3.70;;;1.00;76.20;;;;;;5001535;28;20093;-62
2021/01/25 06:04:20;;;;;;;5.53;3.78;;;0.90;76.10;;;;;;5000743;28;20030;-63
2021/01/25 06:07:11;;;;;;;4.85;3.20;;;0.90;76.40;;;;;;5000984;28;20398;-63
2021/01/25 06:09:42;;;;;;;4.70;3.70;;;1.00;76.70;;;;;;5001102;28;20494;-61
2021/01/25 06:12:08;;;;;;;3.38;2.95;;;0.90;76.30;;;;;;4998059;28;20184;-62
2021/01/25 06:15:04;;;;;;;5.40;3.40;;;1.00;76.40;;;;;;5001117;28;20117;-61
2021/01/25 06:17:33;;;;;;;4.10;3.40;;;1.00;77.10;;;;;;4999552;28;20106;-60
2021/01/25 06:20:03;;;;;;;3.30;3.00;;;1.00;76.70;;;;;;4983469;28;20061;-62
2021/01/25 06:22:30;;;;;;;4.28;3.25;;;1.00;76.70;;;;;;5000116;28;20038;-63
2021/01/25 06:24:56;;;;;;;4.60;3.38;;;1.00;76.70;;;;;;5001413;28;20394;-61
2021/01/25 06:27:24;;;;;;;5.82;3.40;;;1.00;77.70;;;;;;5000711;28;20035;-62
2021/01/25 06:29:51;;;;;;;4.90;3.38;;;1.00;76.90;;;;;;4999619;28;20030;-60
2021/01/25 06:32:17;;;;;;;3.60;3.30;;;1.10;76.90;;;;;;4990844;28;20037;-62
2021/01/25 06:34:44;;;;;;;3.72;3.22;;;1.10;77.00;;;;;;5000246;28;20038;-60
2021/01/25 06:37:09;;;;;;;5.82;4.43;;;1.10;77.00;;;;;;4982706;28;20080;-62
2021/01/25 06:39:48;;;;;;;5.35;4.85;;;1.10;76.90;;;;;;4999364;28;20030;-63
2021/01/25 06:42:17;;;;;;;4.28;3.88;;;1.10;77.20;;;;;;5001807;28;20022;-63
2021/01/25 06:44:44;;;;;;;5.00;4.05;;;1.20;77.10;;;;;;4998934;28;20383;-62
2021/01/25 06:47:15;;;;;;;6.20;5.25;;;1.20;77.10;;;;;;5000424;28;20589;-63
2021/01/25 06:49:42;;;;;;;8.85;3.70;;;1.20;77.20;;;;;;5000086;28;20593;-62
2021/01/25 06:52:09;;;;;;;5.70;3.47;;;1.20;77.10;;;;;;4983382;28;20040;-63
2021/01/25 06:54:42;;;;;;;3.70;3.20;;;1.30;77.20;;;;;;4982227;28;20084;-61
2021/01/25 06:57:08;;;;;;;4.63;3.60;;;1.30;77.40;;;;;;4999821;28;20573;-62
2021/01/25 06:59:37;;;;;;;4.60;3.50;;;1.30;77.20;;;;;;5001371;28;20663;-62
2021/01/25 07:02:11;;;;;;;4.32;3.60;;;1.30;77.30;;;;;;4982932;28;20027;-62
2021/01/25 07:04:45;;;;;;;6.72;4.40;;;1.40;77.40;;;;;;4997945;28;20049;-61
2021/01/25 07:07:29;;;;;;;6.32;4.45;;;1.40;77.40;;;;;;4996030;28;20153;-62
2021/01/25 07:09:57;;;;;;;6.72;4.72;;;1.40;77.60;;;;;;4997924;28;20030;-62
2021/01/25 07:12:25;;;;;;;5.53;4.00;;;1.40;77.30;;;;;;4997548;28;20042;-63
2021/01/25 07:14:52;;;;;;;5.90;4.53;;;1.50;77.50;;;;;;4999258;28;20053;-62
2021/01/25 07:17:18;;;;;;;4.05;3.45;;;1.50;77.60;;;;;;4999296;28;20076;-62
2021/01/25 07:19:44;;;;;;;4.47;3.53;;;1.50;77.60;;;;;;4999263;28;20457;-63
2021/01/25 07:22:11;;;;;;;3.70;3.00;;;1.50;77.60;;;;;;4980959;28;20026;-61
2021/01/25 07:24:38;;;;;;;4.65;3.58;;;1.50;77.60;;;;;;4999708;28;20037;-63
2021/01/25 07:27:05;;;;;;;4.03;3.53;;;1.60;77.80;;;;;;4996005;28;20441;-61
2021/01/25 07:29:31;;;;;;;4.30;3.45;;;1.60;77.80;;;;;;4996784;28;20031;-62
2021/01/25 07:31:58;;;;;;;4.22;3.67;;;1.60;77.80;;;;;;4999199;28;20038;-63
2021/01/25 07:34:24;;;;;;;4.60;3.70;;;1.60;77.60;;;;;;4997698;28;20321;-60
2021/01/25 07:36:51;;;;;;;4.38;3.97;;;1.70;77.80;;;;;;4995315;28;20065;-61
2021/01/25 07:39:18;;;;;;;3.72;3.25;;;1.70;78.60;;;;;;4989044;28;20038;-63
2021/01/25 07:41:45;;;;;;;5.55;4.03;;;1.70;77.90;;;;;;4997833;28;20062;-62
2021/01/25 07:44:13;;;;;;;5.15;3.88;;;1.70;77.90;;;;;;4980555;28;20465;-63
2021/01/25 07:46:40;;;;;;;5.00;3.80;;;1.70;78.00;;;;;;4997860;28;20058;-61
2021/01/25 07:49:06;;;;;;;4.93;3.92;;;1.70;78.00;;;;;;4993127;28;20038;-61
2021/01/25 07:51:33;;;;;;;4.22;3.83;;;1.70;78.10;;;;;;4998250;28;20034;-63
2021/01/25 07:54:00;;;;;;;4.30;3.78;;;1.70;78.30;;;;;;4997012;28;20034;-61
2021/01/25 07:56:27;;;;;;;6.43;4.15;;;1.70;78.30;;;;;;4980411;28;20026;-63
2021/01/25 07:59:14;;;;;;;6.32;4.38;;;1.80;78.50;;;;;;4997783;28;20038;-61
2021/01/25 08:01:45;;;;;;;7.20;4.20;;;1.80;79.00;;;;;;4990554;28;20038;-63
2021/01/25 08:04:13;;;;;;;6.82;4.43;;;1.80;78.80;;;;;;4997599;28;20036;-62
2021/01/25 08:06:40;;;;;;;5.70;4.15;;;1.90;78.90;;;;;;4998443;28;20069;-63
2021/01/25 08:09:07;;;;;;;5.45;3.75;;;1.90;79.00;;;;;;4998246;28;20046;-60
2021/01/25 08:11:35;;;;;;;6.43;4.13;;;1.90;79.00;;;;;;4995807;28;20034;-61
2021/01/25 08:14:23;;;;;;;5.07;4.07;;;2.00;79.20;;;;;;4997009;28;20113;-63
2021/01/25 08:16:58;;;;;;;5.00;3.95;;;2.10;79.40;;;;;;4977702;28;20034;-62
2021/01/25 08:19:35;;;;;;;6.65;4.28;;;2.10;79.20;;;;;;4994392;28;20107;-62
2021/01/25 08:22:04;;;;;;;6.55;3.75;;;2.20;79.10;;;;;;4997296;28;20034;-61
2021/01/25 08:24:32;;;;;;;3.88;3.42;;;2.30;79.10;;;;;;4979224;28;20113;-63
2021/01/25 08:27:12;;;;;;;4.32;3.88;;;2.30;79.80;;;;;;4980856;28;20501;-62
2021/01/25 08:29:37;;;;;;;3.63;3.33;;;2.40;79.40;;;;;;4996399;28;20041;-63
2021/01/25 08:32:12;;;;;;;3.95;3.30;;;2.40;79.10;;;;;;4998001;28;20060;-62
2021/01/25 08:34:38;;;;;;;6.72;3.72;;;2.50;79.50;;;;;;4996622;28;20062;-63
2021/01/25 08:37:08;;;;;;;7.28;5.28;;;2.60;79.20;;;;;;4997011;28;20050;-62
2021/01/25 08:39:51;;;;;;;4.63;3.67;;;2.60;79.20;;;;;;4997587;28;20030;-62
2021/01/25 08:42:33;;;;;;;3.70;2.75;;;2.70;79.50;;;;;;4997834;28;20030;-61
2021/01/25 08:45:22;;;;;;;3.28;3.00;;;2.80;79.30;;;;;;4997421;28;20033;-63
2021/01/25 08:47:48;;;;;;;3.80;3.00;;;2.80;79.00;;;;;;4998316;28;20361;-63
2021/01/25 08:50:27;;;;;;;3.30;2.72;;;2.90;78.70;;;;;;4995672;28;20053;-63
2021/01/25 08:53:05;;;;;;;2.47;2.30;;;3.00;78.90;;;;;;4996125;28;20038;-63
2021/01/25 08:55:48;;;;;;;2.70;2.50;;;3.10;78.90;;;;;;4996676;28;20513;-62
2021/01/25 08:58:25;;;;;;;2.85;2.65;;;3.10;78.80;;;;;;4997871;28;20037;-63
2021/01/25 09:00:51;;;;;;;2.75;2.50;;;3.20;78.60;;;;;;4978199;28;20038;-62
2021/01/25 09:03:17;;;;;;;2.88;2.60;;;3.20;78.40;;;;;;4997441;28;20104;-61
2021/01/25 09:05:43;;;;;;;3.55;3.25;;;3.30;78.40;;;;;;4997477;28;20058;-62
2021/01/25 09:08:09;;;;;;;4.15;2.90;;;3.30;78.50;;;;;;4995741;28;20062;-62
2021/01/25 09:10:35;;;;;;;3.30;3.00;;;3.40;78.50;;;;;;4975381;28;20144;-61
2021/01/25 09:13:01;;;;;;;3.20;2.90;;;3.40;78.40;;;;;;4997290;28;20080;-63
2021/01/25 09:15:26;;;;;;;2.65;2.45;;;3.40;78.30;;;;;;4998877;28;20038;-62
2021/01/25 09:17:54;;;;;;;3.45;2.92;;;3.40;79.00;;;;;;4996222;28;20379;-62
2021/01/25 09:20:20;;;;;;;3.75;2.92;;;3.50;78.30;;;;;;4995649;28;20080;-61
2021/01/25 09:22:46;;;;;;;3.13;2.83;;;3.50;78.30;;;;;;4996461;28;20125;-64
2021/01/25 09:25:13;;;;;;;4.85;3.13;;;3.50;78.10;;;;;;4997470;28;20054;-62
2021/01/25 09:27:39;;;;;;;3.38;2.95;;;3.50;78.20;;;;;;4997294;28;20038;-60
2021/01/25 09:30:07;;;;;;;3.40;2.80;;;3.50;78.20;;;;;;4996529;28;20039;-62
2021/01/25 09:32:33;;;;;;;3.30;3.00;;;3.60;78.30;;;;;;4995838;28;20133;-62
2021/01/25 09:34:58;;;;;;;3.33;3.03;;;3.60;78.20;;;;;;4996845;28;20549;-62
2021/01/25 09:37:24;;;;;;;3.33;3.00;;;3.60;78.30;;;;;;4996998;28;20030;-62
2021/01/25 09:39:49;;;;;;;3.28;2.80;;;3.70;78.40;;;;;;4996884;28;20037;-62
2021/01/25 09:42:16;;;;;;;3.63;2.80;;;3.60;78.10;;;;;;4997062;28;20087;-63
2021/01/25 09:44:42;;;;;;;2.72;2.50;;;3.70;78.10;;;;;;4996679;28;20041;-62
2021/01/25 09:47:08;;;;;;;2.97;2.40;;;3.70;78.10;;;;;;4996685;28;20026;-62
2021/01/25 09:49:33;;;;;;;4.72;3.20;;;3.70;78.10;;;;;;4996852;28;20034;-63
2021/01/25 09:51:59;;;;;;;2.88;2.30;;;3.70;78.10;;;;;;4985768;28;20065;-62
2021/01/25 09:54:25;;;;;;;2.50;2.30;;;3.70;78.10;;;;;;4994929;28;20502;-62
2021/01/25 09:56:51;;;;;;;3.17;2.88;;;3.80;78.10;;;;;;4997627;28;20103;-62
2021/01/25 09:59:17;;;;;;;8.82;6.25;;;3.80;78.10;;;;;;4977862;28;20137;-61
2021/01/25 10:01:44;;;;;;;2.80;2.60;;;3.80;78.30;;;;;;4977494;28;20034;-62
2021/01/25 10:04:09;;;;;;;9.60;6.15;;;3.80;78.30;;;;;;4997053;28;20433;-62
2021/01/25 10:06:35;;;;;;;5.68;5.00;;;3.80;78.00;;;;;;4999128;28;20046;-61
2021/01/25 10:09:01;;;;;;;4.90;3.63;;;3.80;78.10;;;;;;4999073;28;20360;-63
2021/01/25 10:11:27;;;;;;;2.53;2.33;;;3.80;78.00;;;;;;4993982;28;20030;-61
2021/01/25 10:13:53;;;;;;;4.07;2.92;;;3.80;77.80;;;;;;5000196;28;20044;-63
2021/01/25 10:16:19;;;;;;;2.63;2.00;;;3.80;77.60;;;;;;5000333;28;20038;-61
2021/01/25 10:18:46;;;;;;;4.13;2.80;;;3.80;77.60;;;;;;4999037;28;20879;-62
2021/01/25 10:21:12;;;;;;;6.72;4.80;;;3.80;78.40;;;;;;4998510;28;20038;-62
2021/01/25 10:23:37;;;;;;;3.65;3.13;;;3.80;77.60;;;;;;4998733;28;20532;-62
2021/01/25 10:26:03;;;;;;;13.30;8.30;;;3.70;77.60;;;;;;5000008;28;20063;-62
2021/01/25 10:28:29;;;;;;;3.78;3.17;;;3.70;77.50;;;;;;4999819;28;20045;-60
2021/01/25 10:30:55;;;;;;;2.17;1.90;;;3.70;77.60;;;;;;4998193;28;20100;-62
2021/01/25 10:33:20;;;;;;;2.13;1.38;;;3.80;77.50;;;;;;4998749;28;20045;-62
2021/01/25 10:35:46;;;;;;;2.00;1.90;;;3.80;77.50;;;;;;5000143;28;20045;-61
2021/01/25 10:38:12;;;;;;;1.75;1.45;;;3.80;77.40;;;;;;5000289;28;20045;-61
2021/01/25 10:40:39;;;;;;;1.27;1.17;;;3.80;77.40;;;;;;4978436;28;20413;-60
2021/01/25 10:43:06;;;;;;;1.40;1.10;;;3.80;77.30;;;;;;4999156;28;20109;-62
2021/01/25 10:45:32;;;;;;;1.17;0.98;;;3.80;77.20;;;;;;4990057;28;20386;-59
2021/01/25 10:47:59;;;;;;;1.10;1.00;;;3.80;77.20;;;;;;4998944;28;20070;-61
2021/01/25 10:50:24;;;;;;;2.03;1.20;;;3.80;77.20;;;;;;4980723;28;20035;-62
2021/01/25 10:52:50;;;;;;;0.77;0.77;;;3.80;77.30;;;;;;4998831;28;20034;-62
2021/01/25 10:55:17;;;;;;;0.98;0.98;;;3.80;77.30;;;;;;4999994;28;20041;-61
2021/01/25 10:57:43;;;;;;;0.90;0.80;;;3.80;77.30;;;;;;4998270;28;20509;-63
2021/01/25 11:00:17;;;;;;;2.17;1.10;;;3.70;77.30;;;;;;4995327;28;20049;-62
2021/01/25 11:02:44;;;;;;;0.80;0.80;;;3.80;77.60;;;;;;4979396;28;20049;-62
2021/01/25 11:05:14;;;;;;;0.80;0.80;;;3.70;77.60;;;;;;4995167;28;20046;-61
2021/01/25 11:07:39;;;;;;;2.28;1.67;;;3.70;77.80;;;;;;4999354;28;20034;-60
2021/01/25 11:10:07;;;;;;;8.00;3.95;;;3.70;77.70;;;;;;4979996;28;20041;-63
2021/01/25 11:12:33;;;;;;;3.80;2.78;;;3.70;78.00;;;;;;4997804;28;20449;-62
2021/01/25 11:14:59;;;;;;;4.97;2.55;;;3.60;77.90;;;;;;4997880;28;20030;-62
2021/01/25 11:17:25;;;;;;;3.42;2.72;;;3.60;77.80;;;;;;4999053;28;20080;-62
2021/01/25 11:19:51;;;;;;;2.78;2.10;;;3.60;77.80;;;;;;4998750;28;20041;-62
2021/01/25 11:22:17;;;;;;;2.80;1.65;;;3.60;77.90;;;;;;4998868;28;20065;-62
2021/01/25 11:24:43;;;;;;;1.55;1.20;;;3.50;78.00;;;;;;4981471;28;20030;-64
2021/01/25 11:27:08;;;;;;;1.30;0.90;;;3.50;78.20;;;;;;4998147;28;20114;-62
2021/01/25 11:29:35;;;;;;;1.00;0.90;;;3.50;78.30;;;;;;4981296;28;20608;-62
2021/01/25 11:32:03;;;;;;;2.20;1.33;;;3.50;78.30;;;;;;4998702;28;20038;-61
2021/01/25 11:34:29;;;;;;;1.23;1.00;;;3.50;78.20;;;;;;4981459;28;20042;-63
2021/01/25 11:36:55;;;;;;;0.82;0.80;;;3.50;78.20;;;;;;4979765;28;20064;-64
2021/01/25 11:39:22;;;;;;;2.00;1.40;;;3.50;78.30;;;;;;4994432;28;20038;-62
2021/01/25 11:41:48;;;;;;;1.50;1.25;;;3.50;78.10;;;;;;4998004;28;20045;-63
2021/01/25 11:44:14;;;;;;;4.03;0.88;;;3.50;78.10;;;;;;4996310;28;20034;-62
2021/01/25 11:46:39;;;;;;;1.10;0.95;;;3.50;78.10;;;;;;4996929;28;20524;-62
2021/01/25 11:49:05;;;;;;;0.93;0.80;;;3.50;78.20;;;;;;4999153;28;20073;-62
2021/01/25 11:51:31;;;;;;;1.48;1.20;;;3.50;78.10;;;;;;4994631;28;20335;-61
2021/01/25 11:53:56;;;;;;;1.23;0.90;;;3.40;78.00;;;;;;4997916;28;20034;-62
2021/01/25 11:56:22;;;;;;;1.17;0.90;;;3.50;78.10;;;;;;4995017;28;20121;-63
2021/01/25 11:58:47;;;;;;;2.70;1.17;;;3.50;78.10;;;;;;4996892;28;20502;-64
2021/01/25 12:01:13;;;;;;;1.80;1.00;;;3.50;78.00;;;;;;4981165;28;20034;-60
2021/01/25 12:03:39;;;;;;;1.77;1.23;;;3.50;77.90;;;;;;4997862;28;20494;-62
2021/01/25 12:06:04;;;;;;;2.13;1.00;;;3.40;77.80;;;;;;4998928;28;20095;-62
2021/01/25 12:08:35;;;;;;;3.40;2.22;;;3.50;77.80;;;;;;4996844;28;20038;-63
2021/01/25 12:11:01;;;;;;;2.97;2.28;;;3.40;77.80;;;;;;4994775;28;20092;-62
2021/01/25 12:13:27;;;;;;;2.55;2.10;;;3.40;77.90;;;;;;4996550;28;20502;-62
2021/01/25 12:15:52;;;;;;;3.03;1.90;;;3.50;78.00;;;;;;4981709;28;20099;-62
2021/01/25 12:18:18;;;;;;;2.45;1.50;;;3.40;78.00;;;;;;4996438;28;20049;-64
2021/01/25 12:20:44;;;;;;;1.30;1.20;;;3.50;78.10;;;;;;4997759;28;20133;-62
2021/01/25 12:23:09;;;;;;;1.60;1.08;;;3.50;78.00;;;;;;4981521;28;20044;-60
2021/01/25 12:25:35;;;;;;;1.83;1.20;;;3.40;78.00;;;;;;4998179;28;20165;-62
2021/01/25 12:28:00;;;;;;;2.10;1.13;;;3.50;78.10;;;;;;4978788;28;20165;-64
2021/01/25 12:30:26;;;;;;;4.72;1.02;;;3.40;78.20;;;;;;4997300;28;20034;-61
2021/01/25 12:32:52;;;;;;;1.08;0.90;;;3.40;78.10;;;;;;4995549;28;20124;-63
2021/01/25 12:35:18;;;;;;;1.30;0.90;;;3.50;78.10;;;;;;4997942;28;20084;-63
2021/01/25 12:37:45;;;;;;;2.25;1.10;;;3.50;78.00;;;;;;4996438;28;20038;-61
2021/01/25 12:40:13;;;;;;;1.63;0.93;;;3.50;77.90;;;;;;4997064;28;20460;-62
2021/01/25 12:42:39;;;;;;;3.10;1.20;;;3.50;78.00;;;;;;4980759;28;20857;-60
2021/01/25 12:45:05;;;;;;;1.08;1.08;;;3.50;78.00;;;;;;4997582;28;20064;-62
2021/01/25 12:47:31;;;;;;;1.30;0.80;;;3.50;78.00;;;;;;4981332;28;20690;-61
2021/01/25 12:49:57;;;;;;;2.47;0.90;;;3.50;78.00;;;;;;4998304;28;20091;-60
2021/01/25 12:52:22;;;;;;;1.40;1.05;;;3.40;78.00;;;;;;4993639;28;20026;-63
2021/01/25 12:54:48;;;;;;;2.80;1.10;;;3.50;78.00;;;;;;4997140;28;20034;-61